Time;durP1;ratioP1;P1;durP2;ratioP2;P2;SDS_P1;SDS_P2;PMS_P1;PMS_P2;Temp;Humidity;BMP_temperature;BMP_pressure;BME280_temperature;BME280_humidity;BME280_pressure;Samples;Min_cycle;Max_cycle;Signal;HPM_P1;HPM_P2
2022/10/04 00:02:01;;;;;;;5.32;2.83;;;10.10;99.90;;;;;;5022378;28;20043;-49
2022/10/04 00:04:40;;;;;;;4.05;2.90;;;10.10;99.90;;;;;;5043890;28;20131;-49
2022/10/04 00:07:28;;;;;;;4.22;2.58;;;10.10;99.90;;;;;;5020621;28;20128;-48
2022/10/04 00:10:02;;;;;;;5.47;2.63;;;10.10;99.90;;;;;;5021084;28;20064;-47
2022/10/04 00:12:55;;;;;;;7.22;3.20;;;10.10;99.90;;;;;;5026450;28;20040;-49
2022/10/04 00:15:30;;;;;;;4.45;2.40;;;10.10;99.90;;;;;;5022336;28;20529;-51
2022/10/04 00:18:20;;;;;;;4.50;2.87;;;10.00;99.90;;;;;;5041798;28;20037;-50
2022/10/04 00:20:52;;;;;;;4.82;2.70;;;10.00;99.90;;;;;;5039116;28;20064;-49
2022/10/04 00:23:24;;;;;;;3.45;2.83;;;10.00;99.90;;;;;;5008142;28;20021;-48
2022/10/04 00:25:51;;;;;;;3.85;2.60;;;10.00;99.90;;;;;;5023732;28;20052;-51
2022/10/04 00:28:19;;;;;;;3.88;2.45;;;9.90;99.90;;;;;;5047741;28;20158;-48
2022/10/04 00:31:05;;;;;;;4.72;2.97;;;9.90;99.90;;;;;;5042261;28;20108;-50
2022/10/04 00:34:02;;;;;;;4.65;2.50;;;9.90;99.90;;;;;;5036441;28;20032;-49
2022/10/04 00:36:35;;;;;;;3.97;2.53;;;9.90;99.90;;;;;;4984679;28;20049;-47
2022/10/04 00:39:13;;;;;;;5.57;2.25;;;9.90;99.90;;;;;;5043636;28;20534;-47
2022/10/04 00:41:48;;;;;;;2.70;2.50;;;9.80;99.90;;;;;;5039870;28;20057;-47
2022/10/04 00:44:51;;;;;;;5.22;2.17;;;9.90;99.90;;;;;;5047132;28;20086;-51
2022/10/04 00:47:17;;;;;;;4.32;2.53;;;9.80;99.90;;;;;;5020015;28;20028;-47
2022/10/04 00:49:45;;;;;;;3.72;1.85;;;9.80;99.90;;;;;;5043408;28;20042;-48
2022/10/04 00:52:21;;;;;;;4.85;2.67;;;9.80;99.90;;;;;;5025285;28;20021;-48
2022/10/04 00:54:51;;;;;;;3.67;1.92;;;9.80;99.90;;;;;;5041529;28;20029;-48
2022/10/04 00:57:23;;;;;;;4.20;2.42;;;9.80;99.90;;;;;;5021544;28;20021;-48
2022/10/04 01:00:03;;;;;;;5.05;2.35;;;9.80;99.90;;;;;;5039602;28;20100;-50
2022/10/04 01:02:49;;;;;;;5.07;2.17;;;9.80;99.90;;;;;;5032870;28;20024;-49
2022/10/04 01:05:33;;;;;;;3.63;1.95;;;9.80;99.90;;;;;;5022288;28;20115;-48
2022/10/04 01:08:10;;;;;;;5.07;2.08;;;9.80;99.90;;;;;;5041655;28;20035;-52
2022/10/04 01:10:44;;;;;;;5.50;2.60;;;9.70;99.90;;;;;;5034263;28;20029;-50
2022/10/04 01:13:18;;;;;;;5.63;3.08;;;9.70;99.90;;;;;;5044567;28;20056;-47
2022/10/04 01:16:02;;;;;;;5.00;2.45;;;9.80;99.90;;;;;;5021047;28;20558;-48
2022/10/04 01:18:33;;;;;;;3.38;2.47;;;9.70;99.90;;;;;;5033495;28;20033;-52
2022/10/04 01:21:02;;;;;;;3.28;2.13;;;9.70;99.90;;;;;;5020846;28;20534;-50
2022/10/04 01:23:48;;;;;;;4.53;2.38;;;9.70;99.90;;;;;;5042776;28;20029;-47
2022/10/04 01:26:28;;;;;;;2.38;1.77;;;9.70;99.90;;;;;;5042850;28;20021;-48
2022/10/04 01:29:13;;;;;;;3.25;2.33;;;9.70;99.90;;;;;;5023693;28;20506;-50
2022/10/04 01:31:59;;;;;;;3.80;1.90;;;9.70;99.90;;;;;;5042308;28;20044;-51
2022/10/04 01:34:27;;;;;;;4.38;2.42;;;9.70;99.90;;;;;;5043264;28;20021;-52
2022/10/04 01:36:58;;;;;;;4.82;2.25;;;9.70;99.90;;;;;;5042193;28;20076;-48
2022/10/04 01:39:26;;;;;;;2.60;1.90;;;9.60;99.90;;;;;;5038965;28;20614;-52
2022/10/04 01:42:14;;;;;;;4.05;2.40;;;9.70;99.90;;;;;;5044898;28;20399;-50
2022/10/04 01:45:09;;;;;;;4.63;2.47;;;9.60;99.90;;;;;;5038885;28;20025;-49
2022/10/04 01:47:47;;;;;;;4.10;2.20;;;9.60;99.90;;;;;;5025153;28;20022;-49
2022/10/04 01:50:20;;;;;;;3.80;2.20;;;9.60;99.90;;;;;;5060180;23;20046;-49
2022/10/04 01:52:54;;;;;;;3.83;2.40;;;9.60;99.90;;;;;;5024141;28;20041;-50
2022/10/04 01:55:27;;;;;;;3.67;1.92;;;9.60;99.90;;;;;;5016508;28;20029;-50
2022/10/04 01:58:10;;;;;;;8.57;2.53;;;9.50;99.90;;;;;;5030281;28;20032;-50
2022/10/04 02:00:45;;;;;;;7.25;2.88;;;9.50;99.90;;;;;;5021545;28;20026;-49
2022/10/04 02:03:25;;;;;;;4.95;2.17;;;9.50;99.90;;;;;;5021252;28;20021;-50
2022/10/04 02:05:57;;;;;;;5.63;2.25;;;9.50;99.90;;;;;;5022323;28;20034;-50
2022/10/04 02:08:29;;;;;;;4.05;2.30;;;9.50;99.90;;;;;;5022831;28;20079;-49
2022/10/04 02:10:56;;;;;;;6.70;2.83;;;9.50;99.90;;;;;;5021235;28;20551;-49
2022/10/04 02:13:28;;;;;;;3.78;2.10;;;9.50;99.90;;;;;;5018361;28;20036;-54
2022/10/04 02:15:54;;;;;;;3.40;2.10;;;9.50;99.90;;;;;;5019326;28;20026;-48
2022/10/04 02:18:22;;;;;;;9.18;2.95;;;9.50;99.90;;;;;;5025615;28;20052;-49
2022/10/04 02:20:49;;;;;;;3.78;2.30;;;9.50;99.90;;;;;;5002556;28;20492;-50
2022/10/04 02:23:17;;;;;;;4.15;2.83;;;9.40;99.90;;;;;;5006322;28;20014;-49
2022/10/04 02:25:43;;;;;;;3.92;2.45;;;9.50;99.90;;;;;;5020124;28;20014;-50
2022/10/04 02:28:11;;;;;;;5.88;3.28;;;9.50;99.90;;;;;;5021658;28;20538;-50
2022/10/04 02:32:56;;;;;;;2.88;2.45;;;9.50;99.90;;;;;;5022341;28;20033;-49
2022/10/04 02:33:30;;;;;;;11.73;3.08;;;9.50;99.90;;;;;;5012183;28;20493;-49
2022/10/04 02:35:57;;;;;;;4.68;2.92;;;9.50;99.90;;;;;;5021669;28;20044;-49
2022/10/04 02:38:29;;;;;;;10.95;3.33;;;9.50;99.90;;;;;;5022259;28;20026;-50
2022/10/04 02:41:08;;;;;;;7.20;3.55;;;9.50;99.90;;;;;;5019833;28;20589;-49
2022/10/04 02:43:36;;;;;;;7.18;3.28;;;9.60;99.90;;;;;;5021588;28;20484;-49
2022/10/04 02:46:08;;;;;;;5.40;3.38;;;9.60;99.90;;;;;;5020583;28;20113;-50
2022/10/04 02:48:42;;;;;;;8.23;2.97;;;9.60;99.90;;;;;;5021643;28;20028;-50
2022/10/04 02:51:17;;;;;;;5.53;2.67;;;9.60;99.90;;;;;;5021334;28;20044;-52
2022/10/04 02:54:10;;;;;;;4.70;3.05;;;9.60;99.90;;;;;;5021978;28;20071;-50
2022/10/04 02:56:36;;;;;;;5.18;3.05;;;9.60;99.90;;;;;;5013187;28;20099;-52
2022/10/04 02:59:04;;;;;;;7.00;3.05;;;9.60;99.90;;;;;;5024291;28;20025;-49
2022/10/04 03:01:53;;;;;;;6.32;3.20;;;9.60;99.90;;;;;;5017792;28;20422;-51
2022/10/04 03:04:25;;;;;;;5.60;2.72;;;9.60;99.90;;;;;;5011950;28;20056;-49
2022/10/04 03:06:52;;;;;;;4.18;2.75;;;9.60;99.90;;;;;;5015116;28;20365;-49
2022/10/04 03:09:21;;;;;;;5.43;2.85;;;9.60;99.90;;;;;;5025446;28;20030;-49
2022/10/04 03:11:48;;;;;;;4.07;2.40;;;9.60;99.90;;;;;;5017975;28;20159;-49
2022/10/04 03:14:19;;;;;;;4.70;3.47;;;9.60;99.90;;;;;;5005905;28;20021;-52
2022/10/04 03:16:48;;;;;;;6.07;2.55;;;9.60;99.90;;;;;;5021420;28;20022;-49
2022/10/04 03:19:16;;;;;;;4.38;2.53;;;9.60;99.90;;;;;;5010366;28;20014;-49
2022/10/04 03:21:44;;;;;;;6.03;3.15;;;9.60;99.90;;;;;;5021146;28;20228;-49
2022/10/04 03:24:17;;;;;;;4.85;2.40;;;9.60;99.90;;;;;;5019316;28;20017;-49
2022/10/04 03:26:49;;;;;;;5.18;2.55;;;9.60;99.90;;;;;;5021664;28;20025;-48
2022/10/04 03:29:17;;;;;;;5.20;2.70;;;9.60;99.90;;;;;;5018927;28;20053;-49
2022/10/04 03:31:51;;;;;;;4.30;2.20;;;9.60;99.90;;;;;;5020353;28;20180;-49
2022/10/04 03:34:43;;;;;;;7.60;2.80;;;9.60;99.90;;;;;;5019306;28;20026;-51
2022/10/04 03:37:15;;;;;;;5.40;2.55;;;9.60;99.90;;;;;;5002866;28;20373;-50
2022/10/04 03:39:52;;;;;;;3.85;2.30;;;9.60;99.90;;;;;;5017509;28;20026;-50
2022/10/04 03:42:21;;;;;;;5.45;2.55;;;9.60;99.90;;;;;;5016197;28;20022;-49
2022/10/04 03:44:50;;;;;;;3.33;2.17;;;9.60;99.90;;;;;;5021817;28;20014;-49
2022/10/04 03:47:25;;;;;;;7.75;3.53;;;9.60;99.90;;;;;;5029076;28;20022;-52
2022/10/04 03:49:53;;;;;;;3.93;2.30;;;9.60;99.90;;;;;;5018950;28;20030;-49
2022/10/04 03:52:30;;;;;;;3.00;1.80;;;9.60;99.90;;;;;;5028871;28;20080;-48
2022/10/04 03:55:00;;;;;;;4.38;2.05;;;9.60;99.90;;;;;;5020608;28;20133;-52
2022/10/04 03:57:27;;;;;;;3.63;2.15;;;9.60;99.90;;;;;;5025188;28;20476;-50
2022/10/04 03:59:53;;;;;;;7.22;2.50;;;9.60;99.90;;;;;;5022841;28;20026;-48
2022/10/04 04:02:24;;;;;;;14.48;3.28;;;9.60;99.90;;;;;;5024733;28;20022;-49
2022/10/04 04:05:05;;;;;;;3.88;2.33;;;9.60;99.90;;;;;;5023813;28;20080;-50
2022/10/04 04:07:40;;;;;;;5.30;2.40;;;9.60;99.90;;;;;;5024738;28;20420;-49
2022/10/04 04:10:28;;;;;;;4.80;2.63;;;9.60;99.90;;;;;;5024595;28;20520;-52
2022/10/04 04:12:59;;;;;;;3.38;2.08;;;9.60;99.90;;;;;;5023795;28;20021;-55
2022/10/04 04:15:30;;;;;;;4.22;2.40;;;9.60;99.90;;;;;;5021003;28;20028;-49
2022/10/04 04:18:02;;;;;;;2.58;1.90;;;9.60;99.90;;;;;;5028987;28;20025;-49
2022/10/04 04:20:31;;;;;;;3.92;2.30;;;9.60;99.90;;;;;;5021254;28;20030;-50
2022/10/04 04:23:13;;;;;;;3.40;2.20;;;9.50;99.90;;;;;;5022091;28;20104;-50
2022/10/04 04:25:42;;;;;;;7.15;2.78;;;9.50;99.90;;;;;;5023437;28;20068;-50
2022/10/04 04:28:37;;;;;;;5.05;1.88;;;9.50;99.90;;;;;;5024039;28;20029;-49
2022/10/04 04:31:32;;;;;;;2.38;1.70;;;9.50;99.90;;;;;;5022689;28;20056;-50
2022/10/04 04:34:00;;;;;;;4.25;2.50;;;9.50;99.90;;;;;;5022922;28;20038;-49
2022/10/04 04:36:28;;;;;;;4.22;1.95;;;9.50;99.90;;;;;;5024315;28;20108;-49
2022/10/04 04:39:33;;;;;;;2.40;1.88;;;9.50;99.90;;;;;;5022987;28;20044;-49
2022/10/04 04:42:14;;;;;;;4.93;1.98;;;9.50;99.90;;;;;;5026646;28;20080;-53
2022/10/04 04:44:59;;;;;;;4.40;2.28;;;9.50;99.90;;;;;;5020685;28;20502;-50
2022/10/04 04:47:32;;;;;;;4.25;2.15;;;9.50;99.90;;;;;;5015172;28;20076;-51
2022/10/04 04:50:07;;;;;;;3.60;2.08;;;9.50;99.90;;;;;;5020847;28;20476;-49
2022/10/04 04:52:34;;;;;;;3.15;2.30;;;9.50;99.90;;;;;;5025656;28;20088;-49
2022/10/04 04:55:00;;;;;;;5.47;2.15;;;9.60;99.90;;;;;;5022343;28;20057;-49
2022/10/04 04:57:26;;;;;;;3.03;1.70;;;9.60;99.90;;;;;;5006720;28;20025;-50
2022/10/04 04:59:57;;;;;;;4.97;2.30;;;9.50;99.90;;;;;;5007669;28;20049;-49
2022/10/04 05:02:28;;;;;;;5.40;2.15;;;9.60;99.90;;;;;;5023813;28;20053;-50
2022/10/04 05:05:21;;;;;;;3.17;2.20;;;9.60;99.90;;;;;;5022549;28;20021;-50
2022/10/04 05:07:47;;;;;;;2.97;1.95;;;9.60;99.90;;;;;;5023681;28;20029;-49
2022/10/04 05:10:31;;;;;;;5.35;2.30;;;9.60;99.90;;;;;;5023334;28;20025;-48
2022/10/04 05:12:59;;;;;;;4.07;2.53;;;9.60;99.90;;;;;;5022251;28;20021;-49
2022/10/04 05:15:26;;;;;;;3.35;2.10;;;9.50;99.90;;;;;;5020167;28;20332;-49
2022/10/04 05:17:52;;;;;;;5.32;2.08;;;9.60;99.90;;;;;;5027889;28;20030;-52
2022/10/04 05:20:18;;;;;;;3.15;2.40;;;9.60;99.90;;;;;;5019877;28;20117;-51
2022/10/04 05:22:48;;;;;;;4.47;2.63;;;9.50;99.90;;;;;;5019819;28;20117;-51
2022/10/04 05:25:26;;;;;;;3.63;2.30;;;9.60;99.90;;;;;;5026196;28;20101;-50
2022/10/04 05:27:54;;;;;;;3.35;2.20;;;9.50;99.90;;;;;;5017473;28;20037;-52
2022/10/04 05:30:36;;;;;;;4.22;2.35;;;9.50;99.90;;;;;;5026111;28;20025;-51
2022/10/04 05:33:08;;;;;;;5.65;2.50;;;9.50;99.90;;;;;;5021637;28;20037;-50
2022/10/04 05:35:56;;;;;;;5.53;2.65;;;9.60;99.90;;;;;;5024925;28;20468;-49
2022/10/04 05:38:50;;;;;;;6.50;2.33;;;9.60;99.90;;;;;;5012348;28;20569;-51
2022/10/04 05:41:38;;;;;;;5.72;2.85;;;9.60;99.90;;;;;;5020727;28;20021;-49
2022/10/04 05:44:21;;;;;;;6.60;2.63;;;9.60;99.90;;;;;;5021145;28;20483;-50
2022/10/04 05:46:46;;;;;;;7.13;3.10;;;9.60;99.90;;;;;;5026839;28;20177;-49
2022/10/04 05:49:14;;;;;;;4.07;1.92;;;9.60;99.90;;;;;;5019435;28;20457;-51
2022/10/04 05:51:53;;;;;;;4.68;2.10;;;9.60;99.90;;;;;;5026266;28;20403;-49
2022/10/04 05:54:22;;;;;;;6.40;2.13;;;9.60;99.90;;;;;;5014664;28;20072;-49
2022/10/04 05:57:09;;;;;;;2.22;2.03;;;9.60;99.90;;;;;;5019497;28;20025;-49
2022/10/04 05:59:58;;;;;;;3.05;2.42;;;9.60;99.90;;;;;;5015548;28;20030;-49
2022/10/04 06:02:35;;;;;;;4.22;2.40;;;9.60;99.90;;;;;;5010373;28;20111;-49
2022/10/04 06:05:16;;;;;;;2.70;2.13;;;9.60;99.90;;;;;;5021638;28;20435;-55
2022/10/04 06:07:56;;;;;;;4.30;2.65;;;9.60;99.90;;;;;;5005685;28;20494;-51
2022/10/04 06:10:24;;;;;;;4.68;2.15;;;9.60;99.90;;;;;;5022621;28;20029;-52
2022/10/04 06:13:05;;;;;;;3.80;3.15;;;9.60;99.90;;;;;;5022041;28;20104;-51
2022/10/04 06:16:04;;;;;;;7.65;2.90;;;9.60;99.90;;;;;;5016629;28;20049;-48
2022/10/04 06:18:40;;;;;;;3.67;2.42;;;9.60;99.90;;;;;;5013657;28;20022;-49
2022/10/04 06:21:17;;;;;;;3.15;2.25;;;9.60;99.90;;;;;;5019172;28;20022;-51
2022/10/04 06:23:53;;;;;;;7.25;3.13;;;9.60;99.90;;;;;;5021599;28;20491;-50
2022/10/04 06:26:24;;;;;;;4.63;3.17;;;9.70;99.90;;;;;;5011508;28;20021;-49
2022/10/04 06:29:25;;;;;;;3.15;2.65;;;9.60;99.90;;;;;;5021749;28;20234;-51
2022/10/04 06:31:59;;;;;;;5.90;2.85;;;9.70;99.90;;;;;;4966581;28;20042;-51
2022/10/04 06:34:39;;;;;;;5.63;2.67;;;9.70;99.90;;;;;;5018709;28;20144;-51
2022/10/04 06:37:36;;;;;;;4.03;2.80;;;9.80;99.90;;;;;;5024430;28;20022;-49
2022/10/04 06:40:26;;;;;;;5.43;3.08;;;9.80;99.90;;;;;;5018673;28;20548;-49
2022/10/04 06:43:29;;;;;;;7.00;3.50;;;9.90;99.90;;;;;;5020578;28;20131;-49
2022/10/04 06:46:28;;;;;;;6.85;3.63;;;9.90;99.90;;;;;;5021212;28;20030;-49
2022/10/04 06:49:30;;;;;;;5.35;3.67;;;10.00;99.90;;;;;;5021444;28;20040;-49
2022/10/04 06:52:18;;;;;;;10.52;4.90;;;10.10;99.90;;;;;;5015303;28;20041;-49
2022/10/04 06:54:46;;;;;;;6.50;4.38;;;10.10;99.90;;;;;;5020302;28;20026;-50
2022/10/04 06:57:25;;;;;;;8.95;4.60;;;10.20;99.90;;;;;;5021449;28;20102;-53
2022/10/04 07:00:18;;;;;;;11.63;5.03;;;10.30;99.90;;;;;;5020226;28;20403;-49
2022/10/04 07:03:03;;;;;;;9.13;5.82;;;10.40;99.90;;;;;;5021573;28;20509;-49
2022/10/04 07:05:45;;;;;;;12.63;6.32;;;10.50;99.90;;;;;;5021682;28;20075;-49
2022/10/04 07:08:30;;;;;;;8.75;5.47;;;10.60;99.90;;;;;;5018502;28;20076;-51
2022/10/04 07:11:03;;;;;;;8.63;5.93;;;10.60;99.90;;;;;;5023939;28;20026;-51
2022/10/04 07:13:41;;;;;;;10.00;6.30;;;10.70;99.90;;;;;;5017929;28;20025;-52
2022/10/04 07:16:18;;;;;;;13.05;5.88;;;10.80;99.90;;;;;;5020887;28;20480;-50
2022/10/04 07:19:07;;;;;;;11.27;5.38;;;10.80;99.90;;;;;;5022179;28;20033;-49
2022/10/04 07:22:04;;;;;;;7.60;6.28;;;10.80;99.90;;;;;;5012815;28;20025;-49
2022/10/04 07:25:01;;;;;;;11.45;6.35;;;10.90;99.90;;;;;;5015828;28;20021;-51
2022/10/04 07:27:33;;;;;;;9.45;5.82;;;10.90;99.90;;;;;;5016335;28;20048;-51
2022/10/04 07:30:04;;;;;;;11.57;7.10;;;11.00;99.90;;;;;;5024285;28;20030;-51
2022/10/04 07:32:43;;;;;;;7.93;6.78;;;11.00;99.90;;;;;;5016570;28;20033;-51
2022/10/04 07:35:09;;;;;;;12.52;6.50;;;11.00;99.90;;;;;;5024883;28;20527;-49
2022/10/04 07:38:12;;;;;;;12.95;6.57;;;11.00;99.90;;;;;;5017128;28;20046;-50
2022/10/04 07:40:57;;;;;;;17.90;7.72;;;11.10;99.90;;;;;;4978820;28;20037;-51
2022/10/04 07:43:28;;;;;;;11.75;6.53;;;11.10;99.90;;;;;;5010154;28;20538;-51
2022/10/04 07:46:04;;;;;;;11.68;6.97;;;11.20;99.90;;;;;;5019766;28;20026;-49
2022/10/04 07:48:30;;;;;;;15.07;8.50;;;11.20;99.90;;;;;;5021605;28;20017;-53
2022/10/04 07:51:01;;;;;;;12.57;7.38;;;11.30;99.90;;;;;;5020781;28;20037;-51
2022/10/04 07:53:32;;;;;;;8.88;7.35;;;11.30;99.90;;;;;;5021166;28;20025;-54
2022/10/04 07:56:09;;;;;;;14.50;8.07;;;11.30;99.90;;;;;;5019651;28;20198;-51
2022/10/04 07:58:53;;;;;;;13.73;7.45;;;11.40;99.90;;;;;;5022056;28;20400;-50
2022/10/04 08:01:25;;;;;;;13.68;7.28;;;11.40;99.90;;;;;;5013971;28;20160;-52
2022/10/04 08:04:05;;;;;;;11.88;7.30;;;11.50;99.90;;;;;;5024625;28;20040;-52
2022/10/04 08:06:51;;;;;;;16.30;7.60;;;11.50;99.90;;;;;;5017073;28;20018;-49
2022/10/04 08:09:35;;;;;;;9.73;6.55;;;11.60;99.90;;;;;;5010239;28;20389;-49
2022/10/04 08:12:06;;;;;;;16.90;8.05;;;11.60;99.90;;;;;;5017018;28;20072;-53
2022/10/04 08:14:55;;;;;;;12.20;8.05;;;11.70;99.90;;;;;;5020802;28;20021;-53
2022/10/04 08:17:35;;;;;;;11.38;7.20;;;11.70;99.90;;;;;;5020135;28;20047;-50
2022/10/04 08:20:18;;;;;;;11.60;7.75;;;11.80;99.90;;;;;;5020360;28;20506;-49
2022/10/04 08:22:49;;;;;;;13.32;8.32;;;11.80;99.90;;;;;;5013835;28;20504;-53
2022/10/04 08:25:36;;;;;;;15.75;9.07;;;11.90;99.90;;;;;;5015778;28;20444;-50
2022/10/04 08:31:14;;;;;;;12.88;8.57;;;12.00;99.90;;;;;;4999180;28;20052;-52
2022/10/04 08:34:11;;;;;;;11.48;6.95;;;12.10;99.90;;;;;;5024613;28;20567;-49
2022/10/04 08:36:52;;;;;;;12.32;7.85;;;12.20;99.90;;;;;;5024349;28;20056;-52
2022/10/04 08:39:33;;;;;;;14.27;7.78;;;12.30;99.90;;;;;;5018464;28;20076;-49
2022/10/04 08:42:26;;;;;;;10.77;8.63;;;12.40;99.90;;;;;;5026947;28;20057;-51
2022/10/04 08:45:19;;;;;;;10.38;7.68;;;12.50;99.90;;;;;;5018339;28;20026;-50
2022/10/04 08:47:53;;;;;;;8.80;6.85;;;12.60;99.90;;;;;;5023796;28;20030;-54
2022/10/04 08:50:24;;;;;;;12.27;7.53;;;12.60;99.90;;;;;;5011423;28;20091;-51
2022/10/04 08:53:20;;;;;;;15.13;7.40;;;12.80;99.90;;;;;;5023832;28;20030;-53
2022/10/04 08:56:04;;;;;;;10.27;7.32;;;12.80;99.90;;;;;;5024233;28;20341;-51
2022/10/04 08:58:52;;;;;;;12.80;6.78;;;12.80;99.90;;;;;;5018657;28;20025;-49
2022/10/04 09:01:43;;;;;;;14.57;7.38;;;12.90;99.90;;;;;;5016969;28;20026;-54
2022/10/04 09:04:21;;;;;;;12.23;6.30;;;12.90;99.90;;;;;;5019689;28;20160;-52
2022/10/04 09:07:11;;;;;;;14.32;7.65;;;13.00;99.90;;;;;;5019886;28;20250;-53
2022/10/04 09:09:55;;;;;;;11.25;6.53;;;13.10;99.90;;;;;;5015787;28;20499;-53
2022/10/04 09:12:49;;;;;;;12.80;7.18;;;13.10;99.90;;;;;;5012219;28;20404;-52
2022/10/04 09:15:41;;;;;;;9.70;5.28;;;13.20;99.90;;;;;;5013103;28;20033;-50
2022/10/04 09:18:21;;;;;;;10.95;5.68;;;13.20;99.90;;;;;;5027792;28;20443;-53
2022/10/04 09:21:19;;;;;;;11.25;6.65;;;13.30;99.90;;;;;;5020297;28;20033;-51
2022/10/04 09:24:04;;;;;;;10.32;5.93;;;13.30;99.90;;;;;;5014783;28;20404;-50
2022/10/04 09:26:44;;;;;;;11.98;5.70;;;13.40;99.90;;;;;;5015249;28;20045;-52
2022/10/04 09:29:48;;;;;;;12.93;5.72;;;13.50;99.90;;;;;;5022439;28;20021;-53
2022/10/04 09:32:29;;;;;;;13.43;6.60;;;13.50;99.90;;;;;;5019579;28;20021;-52
2022/10/04 09:35:05;;;;;;;13.20;6.45;;;13.60;99.90;;;;;;5027473;28;20124;-52
2022/10/04 09:37:53;;;;;;;;;;;13.70;99.90;;;;;;5020644;28;20017;-50
2022/10/04 09:40:50;;;;;;;10.90;5.85;;;13.70;99.90;;;;;;5023267;28;19905;-52
2022/10/04 09:43:37;;;;;;;8.90;6.00;;;13.80;99.90;;;;;;5011291;28;20017;-52
2022/10/04 09:46:17;;;;;;;11.15;5.55;;;13.90;99.90;;;;;;5021925;28;20076;-51
2022/10/04 09:48:59;;;;;;;8.88;4.60;;;13.90;99.90;;;;;;5023396;28;20345;-52
2022/10/04 09:51:58;;;;;;;11.70;5.72;;;14.00;99.90;;;;;;5023310;28;20113;-52
2022/10/04 09:54:50;;;;;;;11.38;5.72;;;14.00;99.90;;;;;;5015628;28;20083;-53
2022/10/04 09:57:44;;;;;;;13.95;6.20;;;14.10;99.90;;;;;;5007683;28;20053;-51
2022/10/04 10:00:23;;;;;;;9.13;5.53;;;14.10;99.90;;;;;;5021656;28;20026;-54
2022/10/04 10:03:36;;;;;;;12.30;6.57;;;14.20;99.90;;;;;;5021684;28;20384;-52
2022/10/04 10:06:17;;;;;;;15.73;6.68;;;14.20;99.90;;;;;;5012202;28;20104;-54
2022/10/04 10:09:10;;;;;;;14.73;5.97;;;14.20;99.90;;;;;;5022649;28;20029;-49
2022/10/04 10:15:00;;;;;;;10.05;5.25;;;14.20;99.90;;;;;;5016221;28;20079;-52
2022/10/04 10:17:36;;;;;;;8.13;5.32;;;14.10;99.90;;;;;;5023219;28;20017;-49
2022/10/04 10:20:27;;;;;;;9.13;5.00;;;14.10;99.90;;;;;;5020705;28;20031;-52
2022/10/04 10:23:14;;;;;;;14.60;5.30;;;14.10;99.90;;;;;;5016595;28;20029;-51
2022/10/04 10:25:55;;;;;;;7.68;4.63;;;14.10;99.90;;;;;;5021435;28;20481;-52
2022/10/04 10:28:35;;;;;;;12.23;5.90;;;14.10;99.90;;;;;;5009487;28;20108;-51
2022/10/04 10:31:19;;;;;;;9.27;5.72;;;14.20;99.90;;;;;;5020540;28;20365;-52
2022/10/04 10:33:45;;;;;;;9.68;6.85;;;14.30;99.90;;;;;;5022373;28;20025;-50
2022/10/04 10:36:44;;;;;;;14.48;6.85;;;14.40;99.90;;;;;;5021745;28;20565;-52
2022/10/04 10:39:47;;;;;;;12.88;5.60;;;14.50;99.90;;;;;;5019240;28;20064;-53
2022/10/04 10:42:46;;;;;;;9.70;5.22;;;14.60;99.90;;;;;;5024780;28;20483;-50
2022/10/04 10:45:22;;;;;;;12.07;5.45;;;14.60;99.90;;;;;;5021885;28;20051;-55
2022/10/04 10:48:03;;;;;;;12.90;6.22;;;14.70;99.90;;;;;;5020387;28;20018;-50
2022/10/04 10:51:02;;;;;;;10.93;6.07;;;14.80;99.90;;;;;;5012231;28;20503;-51
2022/10/04 10:54:04;;;;;;;17.02;6.13;;;14.90;99.90;;;;;;5014742;28;20017;-50
2022/10/04 10:56:44;;;;;;;12.15;6.72;;;15.00;99.90;;;;;;5017777;28;20108;-53
2022/10/04 10:59:46;;;;;;;7.80;6.43;;;15.00;99.90;;;;;;5024807;28;20056;-51
2022/10/04 11:02:35;;;;;;;12.07;5.68;;;15.10;99.90;;;;;;5020810;28;20079;-53
2022/10/04 11:05:22;;;;;;;13.18;6.72;;;15.10;99.90;;;;;;5020639;28;20021;-50
2022/10/04 11:07:54;;;;;;;11.57;6.95;;;15.20;99.90;;;;;;5021270;28;20052;-52
2022/10/04 11:10:46;;;;;;;10.65;6.47;;;15.20;99.90;;;;;;5012658;28;20021;-50
2022/10/04 11:13:59;;;;;;;14.38;6.93;;;15.30;99.90;;;;;;5018035;28;20097;-54
2022/10/04 11:16:57;;;;;;;13.18;5.63;;;15.30;99.90;;;;;;5010625;28;20472;-51
2022/10/04 11:19:45;;;;;;;11.38;7.40;;;15.40;99.90;;;;;;5012785;28;20029;-51
2022/10/04 11:22:32;;;;;;;11.38;6.88;;;15.40;99.90;;;;;;5017949;28;20021;-53
2022/10/04 11:25:00;;;;;;;10.30;6.43;;;15.40;99.90;;;;;;5025040;28;20033;-52
2022/10/04 11:28:04;;;;;;;10.23;6.65;;;15.40;99.90;;;;;;5017932;28;20021;-49
2022/10/04 11:31:08;;;;;;;11.15;6.10;;;15.40;99.90;;;;;;4988113;28;20045;-49
2022/10/04 11:33:47;;;;;;;9.00;4.82;;;15.40;99.90;;;;;;5012502;28;20516;-53
2022/10/04 11:36:33;;;;;;;13.30;6.32;;;15.50;99.90;;;;;;5020948;28;20391;-52
2022/10/04 11:39:13;;;;;;;8.88;5.40;;;15.40;99.90;;;;;;5020770;28;20549;-50
2022/10/04 11:42:34;;;;;;;12.88;5.55;;;15.40;99.90;;;;;;5022622;28;20472;-52
2022/10/04 11:45:32;;;;;;;8.07;3.92;;;15.50;99.90;;;;;;4910338;28;20353;-53
2022/10/04 11:48:12;;;;;;;9.35;4.72;;;15.40;99.90;;;;;;5019850;28;20014;-50
2022/10/04 11:50:41;;;;;;;6.38;4.20;;;15.40;99.90;;;;;;5021066;28;20508;-51
2022/10/04 11:53:42;;;;;;;7.78;3.45;;;15.40;99.90;;;;;;5020347;28;20022;-50
2022/10/04 11:56:32;;;;;;;7.20;3.85;;;15.40;99.90;;;;;;5018230;28;20086;-54
2022/10/04 11:59:26;;;;;;;12.75;4.60;;;15.50;99.90;;;;;;5026942;28;20486;-54
2022/10/04 12:02:01;;;;;;;11.00;4.10;;;15.50;99.90;;;;;;5018751;28;20030;-51
2022/10/04 12:04:52;;;;;;;8.07;3.70;;;15.60;99.90;;;;;;5027150;28;20022;-50
2022/10/04 12:07:40;;;;;;;7.10;3.58;;;15.60;99.90;;;;;;5011787;28;20487;-49
2022/10/04 12:10:28;;;;;;;7.00;2.97;;;15.70;99.90;;;;;;5024864;28;20064;-49
2022/10/04 12:13:09;;;;;;;9.85;4.00;;;15.80;99.90;;;;;;5005600;28;20555;-55
2022/10/04 12:15:53;;;;;;;9.27;3.30;;;15.90;99.90;;;;;;5021220;28;20087;-52
2022/10/04 12:18:43;;;;;;;5.53;2.65;;;16.00;99.90;;;;;;5014501;28;20029;-50
2022/10/04 12:21:40;;;;;;;8.40;3.00;;;16.10;99.90;;;;;;5023373;28;20396;-59
2022/10/04 12:24:05;;;;;;;6.82;3.08;;;16.20;99.90;;;;;;5005202;28;20018;-50
2022/10/04 12:27:01;;;;;;;8.27;3.38;;;16.20;99.90;;;;;;5019410;28;20033;-53
2022/10/04 12:29:35;;;;;;;5.75;2.10;;;16.30;99.90;;;;;;5016799;28;20097;-50
2022/10/04 12:32:18;;;;;;;7.82;3.00;;;16.30;99.90;;;;;;5023122;28;20450;-49
2022/10/04 12:35:07;;;;;;;7.95;2.22;;;16.40;99.90;;;;;;5026986;28;20364;-49
2022/10/04 12:37:52;;;;;;;6.40;2.65;;;16.40;99.90;;;;;;5020465;28;20080;-49
2022/10/04 12:40:33;;;;;;;9.63;2.53;;;16.40;99.90;;;;;;5015189;28;20136;-49
2022/10/04 12:43:35;;;;;;;4.72;1.92;;;16.50;99.90;;;;;;5020346;28;20021;-49
2022/10/04 12:46:19;;;;;;;5.43;2.13;;;16.60;99.90;;;;;;5023994;28;20514;-50
2022/10/04 12:48:56;;;;;;;9.82;2.55;;;16.60;99.90;;;;;;5024875;28;20179;-49
2022/10/04 12:51:35;;;;;;;4.40;1.92;;;16.60;99.90;;;;;;5000105;28;20041;-52
2022/10/04 12:54:37;;;;;;;3.45;2.20;;;16.60;99.90;;;;;;5010501;28;20033;-55
2022/10/04 12:57:17;;;;;;;5.45;2.58;;;16.60;99.90;;;;;;5003899;28;20107;-54
2022/10/04 13:00:02;;;;;;;4.00;1.90;;;16.60;99.90;;;;;;5021649;28;20110;-51
2022/10/04 13:02:52;;;;;;;5.75;2.30;;;16.50;99.90;;;;;;5011305;28;20030;-51
2022/10/04 13:05:35;;;;;;;2.35;1.45;;;16.50;99.90;;;;;;5012074;28;20522;-51
2022/10/04 13:08:04;;;;;;;4.30;1.85;;;16.40;99.90;;;;;;5022364;28;20033;-52
2022/10/04 13:10:43;;;;;;;7.18;2.45;;;16.50;99.90;;;;;;5019440;28;20026;-54
2022/10/04 13:13:29;;;;;;;5.68;2.45;;;16.50;99.90;;;;;;5023951;28;20025;-53
2022/10/04 13:16:14;;;;;;;5.45;2.85;;;16.50;99.90;;;;;;5021895;28;20507;-51
2022/10/04 13:19:05;;;;;;;5.20;2.20;;;16.50;99.90;;;;;;5013917;28;20033;-52
2022/10/04 13:21:51;;;;;;;4.88;2.70;;;16.60;99.90;;;;;;4996232;28;20469;-49
2022/10/04 13:24:28;;;;;;;8.07;2.40;;;16.60;99.90;;;;;;4994298;28;20476;-51
2022/10/04 13:27:08;;;;;;;7.53;2.67;;;16.60;99.90;;;;;;5018030;28;20040;-49
2022/10/04 13:29:54;;;;;;;6.15;2.58;;;16.60;99.90;;;;;;5022653;28;20022;-51
2022/10/04 13:32:26;;;;;;;8.27;2.47;;;16.60;99.90;;;;;;5023302;28;20032;-52
2022/10/04 13:35:25;;;;;;;8.82;2.92;;;16.60;99.90;;;;;;5023964;28;20365;-53
2022/10/04 13:38:15;;;;;;;4.80;2.65;;;16.70;99.90;;;;;;5025543;28;20417;-52
2022/10/04 13:40:59;;;;;;;4.00;2.03;;;16.70;99.90;;;;;;5018045;28;20076;-50
2022/10/04 13:43:52;;;;;;;5.45;2.50;;;16.70;99.90;;;;;;5017421;28;20022;-52
2022/10/04 13:46:24;;;;;;;4.15;2.00;;;16.60;99.90;;;;;;5018128;28;20365;-49
2022/10/04 13:48:58;;;;;;;5.72;2.05;;;16.60;99.90;;;;;;5021544;28;20022;-51
2022/10/04 13:56:35;;;;;;;6.25;2.63;;;16.60;99.90;;;;;;5023181;28;20174;-51
2022/10/04 13:57:58;;;;;;;5.75;1.63;;;16.60;99.90;;;;;;5023434;28;20137;-52
2022/10/04 14:00:36;;;;;;;4.97;2.05;;;16.60;99.90;;;;;;5021205;28;20045;-52
2022/10/04 14:03:14;;;;;;;4.15;1.95;;;16.60;99.90;;;;;;5021840;28;20030;-54
2022/10/04 14:05:52;;;;;;;4.35;1.77;;;16.50;99.90;;;;;;5005581;28;20033;-51
2022/10/04 14:08:24;;;;;;;3.75;2.28;;;16.50;99.90;;;;;;5013696;28;20513;-53